sensor_id;sensor_type;location;lat;lon;timestamp;P1;durP1;ratioP1;P2;durP2;ratioP2
18999;SDS011;9633;50.980;13.850;2024-01-30T00:01:00;30.17;;;17.83;;
18999;SDS011;9633;50.980;13.850;2024-01-30T00:02:33;32.37;;;18.17;;
18999;SDS011;9633;50.980;13.850;2024-01-30T00:04:05;27.37;;;17.63;;
18999;SDS011;9633;50.980;13.850;2024-01-30T00:05:40;31.50;;;18.40;;
18999;SDS011;9633;50.980;13.850;2024-01-30T00:07:12;31.80;;;17.73;;
18999;SDS011;9633;50.980;13.850;2024-01-30T00:08:46;31.10;;;18.27;;
18999;SDS011;9633;50.980;13.850;2024-01-30T00:10:20;34.97;;;18.50;;
18999;SDS011;9633;50.980;13.850;2024-01-30T00:11:53;32.67;;;17.67;;
18999;SDS011;9633;50.980;13.850;2024-01-30T00:13:27;30.03;;;17.43;;
18999;SDS011;9633;50.980;13.850;2024-01-30T00:15:00;31.37;;;17.93;;
18999;SDS011;9633;50.980;13.850;2024-01-30T00:16:33;32.13;;;19.37;;
18999;SDS011;9633;50.980;13.850;2024-01-30T00:18:06;36.40;;;18.57;;
18999;SDS011;9633;50.980;13.850;2024-01-30T00:19:39;32.53;;;18.20;;
18999;SDS011;9633;50.980;13.850;2024-01-30T00:21:11;33.83;;;18.63;;
18999;SDS011;9633;50.980;13.850;2024-01-30T00:22:44;33.33;;;18.57;;
18999;SDS011;9633;50.980;13.850;2024-01-30T00:24:17;35.73;;;17.90;;
18999;SDS011;9633;50.980;13.850;2024-01-30T00:25:50;30.77;;;17.87;;
18999;SDS011;9633;50.980;13.850;2024-01-30T00:27:23;30.93;;;17.90;;
18999;SDS011;9633;50.980;13.850;2024-01-30T00:28:57;32.27;;;16.93;;
18999;SDS011;9633;50.980;13.850;2024-01-30T00:30:30;32.73;;;18.03;;
18999;SDS011;9633;50.980;13.850;2024-01-30T00:32:03;27.23;;;17.50;;
18999;SDS011;9633;50.980;13.850;2024-01-30T00:33:36;28.87;;;17.83;;
18999;SDS011;9633;50.980;13.850;2024-01-30T00:35:09;31.43;;;17.43;;
18999;SDS011;9633;50.980;13.850;2024-01-30T00:36:42;31.17;;;16.57;;
18999;SDS011;9633;50.980;13.850;2024-01-30T00:38:15;30.17;;;16.47;;
18999;SDS011;9633;50.980;13.850;2024-01-30T00:39:48;30.60;;;17.07;;
18999;SDS011;9633;50.980;13.850;2024-01-30T00:41:20;29.63;;;15.73;;
18999;SDS011;9633;50.980;13.850;2024-01-30T00:42:53;30.00;;;16.97;;
18999;SDS011;9633;50.980;13.850;2024-01-30T00:44:27;29.43;;;16.77;;
18999;SDS011;9633;50.980;13.850;2024-01-30T00:46:00;28.40;;;16.13;;
18999;SDS011;9633;50.980;13.850;2024-01-30T00:47:32;28.13;;;16.07;;
18999;SDS011;9633;50.980;13.850;2024-01-30T00:49:05;25.83;;;15.67;;
18999;SDS011;9633;50.980;13.850;2024-01-30T00:50:38;30.40;;;16.37;;
18999;SDS011;9633;50.980;13.850;2024-01-30T00:52:11;29.60;;;16.33;;
18999;SDS011;9633;50.980;13.850;2024-01-30T00:53:43;27.80;;;16.30;;
18999;SDS011;9633;50.980;13.850;2024-01-30T00:55:17;30.83;;;16.80;;
18999;SDS011;9633;50.980;13.850;2024-01-30T00:56:49;29.67;;;16.33;;
18999;SDS011;9633;50.980;13.850;2024-01-30T00:58:23;27.17;;;15.17;;
18999;SDS011;9633;50.980;13.850;2024-01-30T00:59:57;25.83;;;14.97;;
18999;SDS011;9633;50.980;13.850;2024-01-30T01:01:29;27.33;;;16.00;;
18999;SDS011;9633;50.980;13.850;2024-01-30T01:03:03;29.10;;;16.93;;
18999;SDS011;9633;50.980;13.850;2024-01-30T01:04:35;23.70;;;15.23;;
18999;SDS011;9633;50.980;13.850;2024-01-30T01:06:09;29.07;;;15.67;;
18999;SDS011;9633;50.980;13.850;2024-01-30T01:07:41;27.93;;;16.13;;
18999;SDS011;9633;50.980;13.850;2024-01-30T01:09:15;27.93;;;15.47;;
18999;SDS011;9633;50.980;13.850;2024-01-30T01:10:47;29.13;;;16.43;;
18999;SDS011;9633;50.980;13.850;2024-01-30T01:12:20;27.20;;;15.00;;
18999;SDS011;9633;50.980;13.850;2024-01-30T01:13:52;30.87;;;16.10;;
18999;SDS011;9633;50.980;13.850;2024-01-30T01:15:27;26.40;;;15.57;;
18999;SDS011;9633;50.980;13.850;2024-01-30T01:17:01;30.63;;;15.97;;
18999;SDS011;9633;50.980;13.850;2024-01-30T01:18:34;29.50;;;16.33;;
18999;SDS011;9633;50.980;13.850;2024-01-30T01:20:07;29.27;;;16.80;;
18999;SDS011;9633;50.980;13.850;2024-01-30T01:21:42;28.37;;;15.13;;
18999;SDS011;9633;50.980;13.850;2024-01-30T01:23:14;26.60;;;15.60;;
18999;SDS011;9633;50.980;13.850;2024-01-30T01:24:47;26.20;;;14.47;;
18999;SDS011;9633;50.980;13.850;2024-01-30T01:26:19;28.37;;;14.73;;
18999;SDS011;9633;50.980;13.850;2024-01-30T01:27:53;31.97;;;16.27;;
18999;SDS011;9633;50.980;13.850;2024-01-30T01:29:25;28.63;;;15.87;;
18999;SDS011;9633;50.980;13.850;2024-01-30T01:31:02;27.60;;;14.27;;
18999;SDS011;9633;50.980;13.850;2024-01-30T01:32:37;29.27;;;14.43;;
18999;SDS011;9633;50.980;13.850;2024-01-30T01:34:10;30.13;;;15.43;;
18999;SDS011;9633;50.980;13.850;2024-01-30T01:35:43;28.07;;;15.57;;
18999;SDS011;9633;50.980;13.850;2024-01-30T01:37:17;29.07;;;15.83;;
18999;SDS011;9633;50.980;13.850;2024-01-30T01:38:49;25.63;;;15.20;;
18999;SDS011;9633;50.980;13.850;2024-01-30T01:40:22;28.07;;;15.20;;
18999;SDS011;9633;50.980;13.850;2024-01-30T01:41:55;30.60;;;15.70;;
18999;SDS011;9633;50.980;13.850;2024-01-30T01:43:28;24.87;;;14.63;;
18999;SDS011;9633;50.980;13.850;2024-01-30T01:45:01;27.07;;;13.90;;
18999;SDS011;9633;50.980;13.850;2024-01-30T01:46:36;31.10;;;15.63;;
18999;SDS011;9633;50.980;13.850;2024-01-30T01:48:09;26.40;;;15.47;;
18999;SDS011;9633;50.980;13.850;2024-01-30T01:49:42;26.83;;;15.40;;
18999;SDS011;9633;50.980;13.850;2024-01-30T01:51:15;23.33;;;14.10;;
18999;SDS011;9633;50.980;13.850;2024-01-30T01:52:48;29.30;;;15.63;;
18999;SDS011;9633;50.980;13.850;2024-01-30T01:54:22;29.00;;;15.60;;
18999;SDS011;9633;50.980;13.850;2024-01-30T01:55:57;25.10;;;15.00;;
18999;SDS011;9633;50.980;13.850;2024-01-30T01:57:30;24.63;;;14.23;;
18999;SDS011;9633;50.980;13.850;2024-01-30T01:59:04;29.00;;;14.90;;
18999;SDS011;9633;50.980;13.850;2024-01-30T02:00:38;24.27;;;14.57;;
18999;SDS011;9633;50.980;13.850;2024-01-30T02:02:14;26.73;;;15.30;;
18999;SDS011;9633;50.980;13.850;2024-01-30T02:03:51;25.87;;;14.67;;
18999;SDS011;9633;50.980;13.850;2024-01-30T02:05:24;24.20;;;14.17;;
18999;SDS011;9633;50.980;13.850;2024-01-30T02:06:57;24.87;;;14.90;;
18999;SDS011;9633;50.980;13.850;2024-01-30T02:08:30;29.43;;;15.80;;
18999;SDS011;9633;50.980;13.850;2024-01-30T02:10:04;28.83;;;15.90;;
18999;SDS011;9633;50.980;13.850;2024-01-30T02:11:38;31.20;;;15.07;;
18999;SDS011;9633;50.980;13.850;2024-01-30T02:13:12;25.83;;;14.37;;
18999;SDS011;9633;50.980;13.850;2024-01-30T02:14:44;27.97;;;15.90;;
18999;SDS011;9633;50.980;13.850;2024-01-30T02:16:18;25.73;;;15.67;;
18999;SDS011;9633;50.980;13.850;2024-01-30T02:17:52;30.83;;;16.17;;
18999;SDS011;9633;50.980;13.850;2024-01-30T02:19:25;25.73;;;14.83;;
18999;SDS011;9633;50.980;13.850;2024-01-30T02:20:58;24.03;;;14.30;;
18999;SDS011;9633;50.980;13.850;2024-01-30T02:22:34;24.97;;;14.00;;
18999;SDS011;9633;50.980;13.850;2024-01-30T02:24:08;25.87;;;15.10;;
18999;SDS011;9633;50.980;13.850;2024-01-30T02:25:42;26.00;;;14.83;;
18999;SDS011;9633;50.980;13.850;2024-01-30T02:27:16;28.37;;;14.50;;
18999;SDS011;9633;50.980;13.850;2024-01-30T02:28:49;26.80;;;15.00;;
18999;SDS011;9633;50.980;13.850;2024-01-30T02:30:22;25.03;;;14.90;;
18999;SDS011;9633;50.980;13.850;2024-01-30T02:31:54;30.27;;;15.53;;
18999;SDS011;9633;50.980;13.850;2024-01-30T02:33:27;26.63;;;15.67;;
18999;SDS011;9633;50.980;13.850;2024-01-30T02:35:00;29.87;;;16.10;;
18999;SDS011;9633;50.980;13.850;2024-01-30T02:36:33;27.50;;;14.90;;
18999;SDS011;9633;50.980;13.850;2024-01-30T02:38:06;28.10;;;14.83;;
18999;SDS011;9633;50.980;13.850;2024-01-30T02:39:40;27.57;;;15.37;;
18999;SDS011;9633;50.980;13.850;2024-01-30T02:41:12;25.60;;;14.93;;
18999;SDS011;9633;50.980;13.850;2024-01-30T02:42:46;30.00;;;16.60;;
18999;SDS011;9633;50.980;13.850;2024-01-30T02:44:18;27.93;;;15.37;;
18999;SDS011;9633;50.980;13.850;2024-01-30T02:45:51;27.67;;;15.17;;
18999;SDS011;9633;50.980;13.850;2024-01-30T02:47:23;25.43;;;15.33;;
18999;SDS011;9633;50.980;13.850;2024-01-30T02:48:57;30.30;;;16.17;;
18999;SDS011;9633;50.980;13.850;2024-01-30T02:50:31;28.20;;;16.33;;
18999;SDS011;9633;50.980;13.850;2024-01-30T02:52:03;30.17;;;15.80;;
18999;SDS011;9633;50.980;13.850;2024-01-30T02:53:38;23.67;;;14.30;;
18999;SDS011;9633;50.980;13.850;2024-01-30T02:55:11;25.13;;;15.40;;
18999;SDS011;9633;50.980;13.850;2024-01-30T02:56:44;28.97;;;15.50;;
18999;SDS011;9633;50.980;13.850;2024-01-30T02:58:17;25.17;;;14.00;;
18999;SDS011;9633;50.980;13.850;2024-01-30T02:59:50;30.37;;;15.43;;
18999;SDS011;9633;50.980;13.850;2024-01-30T03:01:22;30.60;;;16.60;;
18999;SDS011;9633;50.980;13.850;2024-01-30T03:02:56;30.97;;;16.20;;
18999;SDS011;9633;50.980;13.850;2024-01-30T03:04:28;27.60;;;15.30;;
18999;SDS011;9633;50.980;13.850;2024-01-30T03:06:02;30.87;;;16.10;;
18999;SDS011;9633;50.980;13.850;2024-01-30T03:07:37;28.80;;;15.57;;
18999;SDS011;9633;50.980;13.850;2024-01-30T03:09:12;30.53;;;16.30;;
18999;SDS011;9633;50.980;13.850;2024-01-30T03:10:45;30.70;;;16.03;;
18999;SDS011;9633;50.980;13.850;2024-01-30T03:12:18;29.53;;;15.77;;
18999;SDS011;9633;50.980;13.850;2024-01-30T03:13:50;30.10;;;17.13;;
18999;SDS011;9633;50.980;13.850;2024-01-30T03:15:23;29.17;;;16.37;;
18999;SDS011;9633;50.980;13.850;2024-01-30T03:16:56;33.73;;;16.63;;
18999;SDS011;9633;50.980;13.850;2024-01-30T03:18:29;29.77;;;15.90;;
18999;SDS011;9633;50.980;13.850;2024-01-30T03:20:03;27.50;;;15.97;;
18999;SDS011;9633;50.980;13.850;2024-01-30T03:21:37;26.67;;;15.63;;
18999;SDS011;9633;50.980;13.850;2024-01-30T03:23:10;26.50;;;15.53;;
18999;SDS011;9633;50.980;13.850;2024-01-30T03:24:44;30.77;;;16.50;;
18999;SDS011;9633;50.980;13.850;2024-01-30T03:26:17;28.33;;;16.07;;
18999;SDS011;9633;50.980;13.850;2024-01-30T03:27:49;29.23;;;16.87;;
18999;SDS011;9633;50.980;13.850;2024-01-30T03:29:23;28.83;;;16.20;;
18999;SDS011;9633;50.980;13.850;2024-01-30T03:30:55;29.98;;;16.55;;
18999;SDS011;9633;50.980;13.850;2024-01-30T03:32:28;31.20;;;15.83;;
18999;SDS011;9633;50.980;13.850;2024-01-30T03:34:00;28.67;;;15.73;;
18999;SDS011;9633;50.980;13.850;2024-01-30T03:35:34;28.20;;;15.97;;
18999;SDS011;9633;50.980;13.850;2024-01-30T03:37:07;28.20;;;16.27;;
18999;SDS011;9633;50.980;13.850;2024-01-30T03:38:40;29.17;;;15.63;;
18999;SDS011;9633;50.980;13.850;2024-01-30T03:40:13;31.17;;;15.33;;
18999;SDS011;9633;50.980;13.850;2024-01-30T03:41:47;27.37;;;15.83;;
18999;SDS011;9633;50.980;13.850;2024-01-30T03:43:19;30.23;;;15.73;;
18999;SDS011;9633;50.980;13.850;2024-01-30T03:44:52;25.47;;;15.47;;
18999;SDS011;9633;50.980;13.850;2024-01-30T03:46:26;31.80;;;16.47;;
18999;SDS011;9633;50.980;13.850;2024-01-30T03:47:59;31.13;;;15.60;;
18999;SDS011;9633;50.980;13.850;2024-01-30T03:49:31;28.53;;;15.80;;
18999;SDS011;9633;50.980;13.850;2024-01-30T03:51:05;33.13;;;17.17;;
18999;SDS011;9633;50.980;13.850;2024-01-30T03:52:37;28.80;;;15.67;;
18999;SDS011;9633;50.980;13.850;2024-01-30T03:54:11;31.03;;;16.67;;
18999;SDS011;9633;50.980;13.850;2024-01-30T03:55:44;28.53;;;15.87;;
18999;SDS011;9633;50.980;13.850;2024-01-30T03:57:17;31.57;;;16.03;;
18999;SDS011;9633;50.980;13.850;2024-01-30T03:58:50;27.73;;;15.83;;
18999;SDS011;9633;50.980;13.850;2024-01-30T04:00:23;28.77;;;15.80;;
18999;SDS011;9633;50.980;13.850;2024-01-30T04:01:56;31.03;;;15.83;;
18999;SDS011;9633;50.980;13.850;2024-01-30T04:03:28;27.70;;;15.73;;
18999;SDS011;9633;50.980;13.850;2024-01-30T04:05:02;28.00;;;15.30;;
18999;SDS011;9633;50.980;13.850;2024-01-30T04:06:34;31.57;;;15.73;;
18999;SDS011;9633;50.980;13.850;2024-01-30T04:08:09;29.90;;;16.37;;
18999;SDS011;9633;50.980;13.850;2024-01-30T04:09:41;27.50;;;16.37;;
18999;SDS011;9633;50.980;13.850;2024-01-30T04:11:17;31.40;;;16.47;;
18999;SDS011;9633;50.980;13.850;2024-01-30T04:12:50;33.00;;;15.80;;
18999;SDS011;9633;50.980;13.850;2024-01-30T04:14:23;35.17;;;16.30;;
18999;SDS011;9633;50.980;13.850;2024-01-30T04:15:55;32.30;;;16.20;;
18999;SDS011;9633;50.980;13.850;2024-01-30T04:17:28;30.37;;;15.77;;
18999;SDS011;9633;50.980;13.850;2024-01-30T04:19:01;28.27;;;16.40;;
18999;SDS011;9633;50.980;13.850;2024-01-30T04:20:34;31.55;;;17.05;;
18999;SDS011;9633;50.980;13.850;2024-01-30T04:22:06;29.87;;;16.03;;
18999;SDS011;9633;50.980;13.850;2024-01-30T04:23:41;31.07;;;16.23;;
18999;SDS011;9633;50.980;13.850;2024-01-30T04:25:13;34.10;;;16.40;;
18999;SDS011;9633;50.980;13.850;2024-01-30T04:26:48;27.23;;;15.63;;
18999;SDS011;9633;50.980;13.850;2024-01-30T04:28:20;29.00;;;15.90;;
18999;SDS011;9633;50.980;13.850;2024-01-30T04:29:54;31.13;;;16.00;;
18999;SDS011;9633;50.980;13.850;2024-01-30T04:31:26;28.97;;;16.33;;
18999;SDS011;9633;50.980;13.850;2024-01-30T04:32:59;31.90;;;15.90;;
18999;SDS011;9633;50.980;13.850;2024-01-30T04:34:31;25.73;;;15.93;;
18999;SDS011;9633;50.980;13.850;2024-01-30T04:36:07;30.17;;;16.50;;
18999;SDS011;9633;50.980;13.850;2024-01-30T04:37:42;30.80;;;16.43;;
18999;SDS011;9633;50.980;13.850;2024-01-30T04:39:14;30.47;;;15.47;;
18999;SDS011;9633;50.980;13.850;2024-01-30T04:40:48;29.30;;;16.23;;
18999;SDS011;9633;50.980;13.850;2024-01-30T04:42:22;31.20;;;15.53;;
18999;SDS011;9633;50.980;13.850;2024-01-30T04:43:55;26.53;;;16.20;;
18999;SDS011;9633;50.980;13.850;2024-01-30T04:45:28;31.57;;;16.00;;
18999;SDS011;9633;50.980;13.850;2024-01-30T04:47:00;31.33;;;16.50;;
18999;SDS011;9633;50.980;13.850;2024-01-30T04:48:33;26.83;;;15.67;;
18999;SDS011;9633;50.980;13.850;2024-01-30T04:50:06;30.70;;;16.73;;
18999;SDS011;9633;50.980;13.850;2024-01-30T04:51:40;32.60;;;17.40;;
18999;SDS011;9633;50.980;13.850;2024-01-30T04:53:12;30.23;;;16.83;;
18999;SDS011;9633;50.980;13.850;2024-01-30T04:54:46;27.67;;;16.07;;
18999;SDS011;9633;50.980;13.850;2024-01-30T04:56:18;31.30;;;16.87;;
18999;SDS011;9633;50.980;13.850;2024-01-30T04:57:52;34.83;;;18.77;;
18999;SDS011;9633;50.980;13.850;2024-01-30T04:59:24;29.23;;;15.33;;
18999;SDS011;9633;50.980;13.850;2024-01-30T05:00:58;33.67;;;16.73;;
18999;SDS011;9633;50.980;13.850;2024-01-30T05:02:31;30.07;;;15.93;;
18999;SDS011;9633;50.980;13.850;2024-01-30T05:04:03;30.70;;;16.80;;
18999;SDS011;9633;50.980;13.850;2024-01-30T05:05:41;33.83;;;15.73;;
18999;SDS011;9633;50.980;13.850;2024-01-30T05:07:14;29.90;;;16.70;;
18999;SDS011;9633;50.980;13.850;2024-01-30T05:08:47;29.37;;;16.27;;
18999;SDS011;9633;50.980;13.850;2024-01-30T05:10:20;29.33;;;16.87;;
18999;SDS011;9633;50.980;13.850;2024-01-30T05:11:53;33.10;;;17.40;;
18999;SDS011;9633;50.980;13.850;2024-01-30T05:13:27;26.20;;;16.77;;
18999;SDS011;9633;50.980;13.850;2024-01-30T05:14:59;29.77;;;17.37;;
18999;SDS011;9633;50.980;13.850;2024-01-30T05:16:33;30.23;;;16.40;;
18999;SDS011;9633;50.980;13.850;2024-01-30T05:18:05;27.43;;;16.10;;
18999;SDS011;9633;50.980;13.850;2024-01-30T05:19:38;27.77;;;16.40;;
18999;SDS011;9633;50.980;13.850;2024-01-30T05:21:11;28.93;;;16.83;;
18999;SDS011;9633;50.980;13.850;2024-01-30T05:22:44;32.47;;;15.80;;
18999;SDS011;9633;50.980;13.850;2024-01-30T05:24:17;33.80;;;17.63;;
18999;SDS011;9633;50.980;13.850;2024-01-30T05:25:52;29.47;;;16.47;;
18999;SDS011;9633;50.980;13.850;2024-01-30T05:27:24;28.67;;;15.73;;
18999;SDS011;9633;50.980;13.850;2024-01-30T05:28:59;27.97;;;16.03;;
18999;SDS011;9633;50.980;13.850;2024-01-30T05:30:31;31.60;;;16.77;;
18999;SDS011;9633;50.980;13.850;2024-01-30T05:32:05;29.67;;;16.90;;
18999;SDS011;9633;50.980;13.850;2024-01-30T05:33:37;32.23;;;17.00;;
18999;SDS011;9633;50.980;13.850;2024-01-30T05:35:11;33.83;;;17.30;;
18999;SDS011;9633;50.980;13.850;2024-01-30T05:36:43;32.93;;;16.73;;
18999;SDS011;9633;50.980;13.850;2024-01-30T05:38:16;30.03;;;16.00;;
18999;SDS011;9633;50.980;13.850;2024-01-30T05:39:49;30.93;;;17.00;;
18999;SDS011;9633;50.980;13.850;2024-01-30T05:41:22;29.97;;;16.80;;
18999;SDS011;9633;50.980;13.850;2024-01-30T05:42:55;30.87;;;16.77;;
18999;SDS011;9633;50.980;13.850;2024-01-30T05:44:31;31.63;;;16.17;;
18999;SDS011;9633;50.980;13.850;2024-01-30T05:46:03;30.60;;;16.67;;
18999;SDS011;9633;50.980;13.850;2024-01-30T05:47:36;28.97;;;16.40;;
18999;SDS011;9633;50.980;13.850;2024-01-30T05:49:10;28.97;;;17.00;;
18999;SDS011;9633;50.980;13.850;2024-01-30T05:50:43;30.43;;;16.13;;
18999;SDS011;9633;50.980;13.850;2024-01-30T05:52:16;31.30;;;16.43;;
18999;SDS011;9633;50.980;13.850;2024-01-30T05:53:50;30.37;;;14.90;;
18999;SDS011;9633;50.980;13.850;2024-01-30T05:55:22;29.50;;;16.30;;
18999;SDS011;9633;50.980;13.850;2024-01-30T05:56:56;27.67;;;16.37;;
18999;SDS011;9633;50.980;13.850;2024-01-30T05:58:28;30.20;;;16.40;;
18999;SDS011;9633;50.980;13.850;2024-01-30T06:00:04;31.37;;;16.50;;
18999;SDS011;9633;50.980;13.850;2024-01-30T06:01:44;27.13;;;15.43;;
18999;SDS011;9633;50.980;13.850;2024-01-30T06:03:18;29.20;;;15.23;;
18999;SDS011;9633;50.980;13.850;2024-01-30T06:04:51;31.73;;;16.37;;
18999;SDS011;9633;50.980;13.850;2024-01-30T06:06:23;27.90;;;17.10;;
18999;SDS011;9633;50.980;13.850;2024-01-30T06:07:56;29.47;;;16.10;;
18999;SDS011;9633;50.980;13.850;2024-01-30T06:09:30;27.97;;;16.00;;
18999;SDS011;9633;50.980;13.850;2024-01-30T06:11:02;30.97;;;16.70;;
18999;SDS011;9633;50.980;13.850;2024-01-30T06:12:35;29.70;;;16.43;;
18999;SDS011;9633;50.980;13.850;2024-01-30T06:14:08;30.00;;;15.03;;
18999;SDS011;9633;50.980;13.850;2024-01-30T06:15:42;29.67;;;16.93;;
18999;SDS011;9633;50.980;13.850;2024-01-30T06:17:14;28.53;;;15.67;;
18999;SDS011;9633;50.980;13.850;2024-01-30T06:18:48;29.10;;;16.17;;
18999;SDS011;9633;50.980;13.850;2024-01-30T06:20:20;31.43;;;16.97;;
18999;SDS011;9633;50.980;13.850;2024-01-30T06:21:54;29.90;;;16.77;;
18999;SDS011;9633;50.980;13.850;2024-01-30T06:23:27;25.47;;;14.90;;
18999;SDS011;9633;50.980;13.850;2024-01-30T06:25:01;29.23;;;15.83;;
18999;SDS011;9633;50.980;13.850;2024-01-30T06:26:34;27.07;;;15.77;;
18999;SDS011;9633;50.980;13.850;2024-01-30T06:28:07;26.67;;;15.97;;
18999;SDS011;9633;50.980;13.850;2024-01-30T06:29:40;28.93;;;15.63;;
18999;SDS011;9633;50.980;13.850;2024-01-30T06:31:16;26.60;;;15.90;;
18999;SDS011;9633;50.980;13.850;2024-01-30T06:32:50;28.53;;;16.00;;
18999;SDS011;9633;50.980;13.850;2024-01-30T06:34:23;24.90;;;15.43;;
18999;SDS011;9633;50.980;13.850;2024-01-30T06:35:57;25.57;;;14.57;;
18999;SDS011;9633;50.980;13.850;2024-01-30T06:37:30;25.77;;;15.40;;
18999;SDS011;9633;50.980;13.850;2024-01-30T06:39:03;26.47;;;15.17;;
18999;SDS011;9633;50.980;13.850;2024-01-30T06:40:35;25.23;;;15.53;;
18999;SDS011;9633;50.980;13.850;2024-01-30T06:42:09;28.47;;;15.07;;
18999;SDS011;9633;50.980;13.850;2024-01-30T06:43:41;28.07;;;15.57;;
18999;SDS011;9633;50.980;13.850;2024-01-30T06:45:16;28.87;;;14.97;;
18999;SDS011;9633;50.980;13.850;2024-01-30T06:46:50;25.87;;;15.47;;
18999;SDS011;9633;50.980;13.850;2024-01-30T06:48:23;27.10;;;14.87;;
18999;SDS011;9633;50.980;13.850;2024-01-30T06:49:55;27.07;;;14.60;;
18999;SDS011;9633;50.980;13.850;2024-01-30T06:51:28;27.10;;;14.50;;
18999;SDS011;9633;50.980;13.850;2024-01-30T06:53:01;27.00;;;15.30;;
18999;SDS011;9633;50.980;13.850;2024-01-30T06:54:34;26.40;;;15.13;;
18999;SDS011;9633;50.980;13.850;2024-01-30T06:56:06;24.87;;;13.50;;
18999;SDS011;9633;50.980;13.850;2024-01-30T06:57:40;28.13;;;15.27;;
18999;SDS011;9633;50.980;13.850;2024-01-30T06:59:13;23.37;;;14.50;;
18999;SDS011;9633;50.980;13.850;2024-01-30T07:00:46;22.83;;;14.73;;
18999;SDS011;9633;50.980;13.850;2024-01-30T07:02:21;25.53;;;14.57;;
18999;SDS011;9633;50.980;13.850;2024-01-30T07:03:53;25.50;;;14.60;;
18999;SDS011;9633;50.980;13.850;2024-01-30T07:05:26;28.80;;;14.33;;
18999;SDS011;9633;50.980;13.850;2024-01-30T07:06:58;22.20;;;14.13;;
18999;SDS011;9633;50.980;13.850;2024-01-30T07:08:32;24.27;;;14.90;;
18999;SDS011;9633;50.980;13.850;2024-01-30T07:10:05;27.50;;;14.03;;
18999;SDS011;9633;50.980;13.850;2024-01-30T07:11:39;23.33;;;13.87;;
18999;SDS011;9633;50.980;13.850;2024-01-30T07:13:11;25.43;;;13.83;;
18999;SDS011;9633;50.980;13.850;2024-01-30T07:14:44;24.53;;;13.67;;
18999;SDS011;9633;50.980;13.850;2024-01-30T07:16:17;24.53;;;13.80;;
18999;SDS011;9633;50.980;13.850;2024-01-30T07:17:51;22.70;;;13.63;;
18999;SDS011;9633;50.980;13.850;2024-01-30T07:19:24;24.93;;;13.57;;
18999;SDS011;9633;50.980;13.850;2024-01-30T07:20:57;21.87;;;13.07;;
18999;SDS011;9633;50.980;13.850;2024-01-30T07:22:29;20.43;;;12.67;;
18999;SDS011;9633;50.980;13.850;2024-01-30T07:24:03;19.87;;;11.63;;
18999;SDS011;9633;50.980;13.850;2024-01-30T07:25:35;23.23;;;13.47;;
18999;SDS011;9633;50.980;13.850;2024-01-30T07:27:08;24.80;;;14.00;;
18999;SDS011;9633;50.980;13.850;2024-01-30T07:28:40;23.57;;;12.83;;
18999;SDS011;9633;50.980;13.850;2024-01-30T07:30:15;22.53;;;13.40;;
18999;SDS011;9633;50.980;13.850;2024-01-30T07:31:50;24.27;;;13.67;;
18999;SDS011;9633;50.980;13.850;2024-01-30T07:33:24;24.93;;;13.50;;
18999;SDS011;9633;50.980;13.850;2024-01-30T07:34:57;22.20;;;12.90;;
18999;SDS011;9633;50.980;13.850;2024-01-30T07:36:39;23.87;;;13.70;;
18999;SDS011;9633;50.980;13.850;2024-01-30T07:38:11;25.00;;;14.10;;
18999;SDS011;9633;50.980;13.850;2024-01-30T07:39:44;24.60;;;14.27;;
18999;SDS011;9633;50.980;13.850;2024-01-30T07:41:17;25.03;;;14.70;;
18999;SDS011;9633;50.980;13.850;2024-01-30T07:42:50;21.17;;;13.40;;
18999;SDS011;9633;50.980;13.850;2024-01-30T07:44:22;21.57;;;13.33;;
18999;SDS011;9633;50.980;13.850;2024-01-30T07:45:56;23.30;;;13.80;;
18999;SDS011;9633;50.980;13.850;2024-01-30T07:47:28;22.40;;;13.87;;
18999;SDS011;9633;50.980;13.850;2024-01-30T07:49:03;22.80;;;13.10;;
18999;SDS011;9633;50.980;13.850;2024-01-30T07:50:35;22.07;;;13.50;;
18999;SDS011;9633;50.980;13.850;2024-01-30T07:52:09;21.63;;;12.97;;
18999;SDS011;9633;50.980;13.850;2024-01-30T07:53:42;23.97;;;14.00;;
18999;SDS011;9633;50.980;13.850;2024-01-30T07:55:14;27.47;;;13.60;;
18999;SDS011;9633;50.980;13.850;2024-01-30T07:56:48;20.50;;;12.43;;
18999;SDS011;9633;50.980;13.850;2024-01-30T07:58:20;23.13;;;13.57;;
18999;SDS011;9633;50.980;13.850;2024-01-30T07:59:55;23.13;;;12.87;;
18999;SDS011;9633;50.980;13.850;2024-01-30T08:01:29;24.17;;;13.63;;
18999;SDS011;9633;50.980;13.850;2024-01-30T08:03:02;21.17;;;12.80;;
18999;SDS011;9633;50.980;13.850;2024-01-30T08:04:36;23.37;;;12.90;;
18999;SDS011;9633;50.980;13.850;2024-01-30T08:06:10;23.70;;;12.83;;
18999;SDS011;9633;50.980;13.850;2024-01-30T08:07:42;21.33;;;12.33;;
18999;SDS011;9633;50.980;13.850;2024-01-30T08:09:15;22.20;;;12.63;;
18999;SDS011;9633;50.980;13.850;2024-01-30T08:10:47;19.47;;;12.83;;
18999;SDS011;9633;50.980;13.850;2024-01-30T08:12:21;20.80;;;13.67;;
18999;SDS011;9633;50.980;13.850;2024-01-30T08:13:54;20.60;;;12.53;;
18999;SDS011;9633;50.980;13.850;2024-01-30T08:15:27;19.77;;;12.30;;
18999;SDS011;9633;50.980;13.850;2024-01-30T08:17:00;20.20;;;12.83;;
18999;SDS011;9633;50.980;13.850;2024-01-30T08:18:33;23.30;;;12.23;;
18999;SDS011;9633;50.980;13.850;2024-01-30T08:20:08;22.27;;;11.70;;
18999;SDS011;9633;50.980;13.850;2024-01-30T08:21:43;22.97;;;12.30;;
18999;SDS011;9633;50.980;13.850;2024-01-30T08:23:15;21.67;;;12.37;;
18999;SDS011;9633;50.980;13.850;2024-01-30T08:24:49;20.77;;;12.00;;
18999;SDS011;9633;50.980;13.850;2024-01-30T08:26:21;20.17;;;12.47;;
18999;SDS011;9633;50.980;13.850;2024-01-30T08:27:54;19.07;;;12.07;;
18999;SDS011;9633;50.980;13.850;2024-01-30T08:29:26;23.07;;;12.53;;
18999;SDS011;9633;50.980;13.850;2024-01-30T08:31:00;18.10;;;10.70;;
18999;SDS011;9633;50.980;13.850;2024-01-30T08:32:32;19.20;;;11.67;;
18999;SDS011;9633;50.980;13.850;2024-01-30T08:34:05;19.53;;;11.83;;
18999;SDS011;9633;50.980;13.850;2024-01-30T08:35:40;18.87;;;11.60;;
18999;SDS011;9633;50.980;13.850;2024-01-30T08:37:13;18.10;;;11.30;;
18999;SDS011;9633;50.980;13.850;2024-01-30T08:38:48;19.40;;;11.77;;
18999;SDS011;9633;50.980;13.850;2024-01-30T08:40:21;17.87;;;11.83;;
18999;SDS011;9633;50.980;13.850;2024-01-30T08:41:53;17.47;;;10.30;;
18999;SDS011;9633;50.980;13.850;2024-01-30T08:43:26;19.10;;;11.10;;
18999;SDS011;9633;50.980;13.850;2024-01-30T08:44:59;20.73;;;11.70;;
18999;SDS011;9633;50.980;13.850;2024-01-30T08:46:32;19.00;;;11.40;;
18999;SDS011;9633;50.980;13.850;2024-01-30T08:48:06;16.63;;;10.07;;
18999;SDS011;9633;50.980;13.850;2024-01-30T08:49:39;20.27;;;11.50;;
18999;SDS011;9633;50.980;13.850;2024-01-30T08:51:14;19.47;;;11.50;;
18999;SDS011;9633;50.980;13.850;2024-01-30T08:52:47;18.53;;;11.33;;
18999;SDS011;9633;50.980;13.850;2024-01-30T08:54:21;17.53;;;10.43;;
18999;SDS011;9633;50.980;13.850;2024-01-30T08:55:53;15.03;;;10.37;;
18999;SDS011;9633;50.980;13.850;2024-01-30T08:57:26;18.83;;;11.27;;
18999;SDS011;9633;50.980;13.850;2024-01-30T08:59:00;16.80;;;10.40;;
18999;SDS011;9633;50.980;13.850;2024-01-30T09:00:33;16.50;;;10.87;;
18999;SDS011;9633;50.980;13.850;2024-01-30T09:02:06;19.07;;;11.10;;
18999;SDS011;9633;50.980;13.850;2024-01-30T09:03:43;17.80;;;11.03;;
18999;SDS011;9633;50.980;13.850;2024-01-30T09:05:18;16.47;;;10.00;;